KAMG/AMG METAR and TAF weather

Enter ICAO airport designator
Station Type Date Time Source
KAMG METAR 2022/12/04 11:35 UTC NOAA

KAMG 041135Z AUTO 35005KT 10SM BKN013 OVC060 18/16 A3021 RMK AO2 T01830161


Station Type Date Time Source
KAMG Decoded METAR 2022/12/04 11:35 UTC NOAA

ALMA BACON COUNTY AIRPORT, GA, United States (KAMG) 31-32N 82-30W 59M
Dec 04, 2022 - 06:35 AM EST / 2022.12.04 1135 UTC
Wind: from the N (350 degrees) at 6 MPH (5 KT):0
Visibility: 10 mile(s):0
Sky conditions: overcast
Temperature: 64.9 F (18.3 C)
Dew Point: 61.0 F (16.1 C)
Relative Humidity: 86%
Pressure (altimeter): 30.21 in. Hg (1023 hPa)
ob: KAMG 041135Z AUTO 35005KT 10SM BKN013 OVC060 18/16 A3021 RMK AO2 T01830161
cycle: 11

Station Type Date Time Source
KAMG TAF UTC NOAA

Error!

Example: see airport list